Time;durP1;ratioP1;P1;durP2;ratioP2;P2;SDS_P1;SDS_P2;PMS_P1;PMS_P2;Temp;Humidity;BMP_temperature;BMP_pressure;BME280_temperature;BME280_humidity;BME280_pressure;Samples;Min_cycle;Max_cycle;Signal;HPM_P1;HPM_P2
2024/02/14 00:00:58;;;;;;;5.10;2.08;;;;;;;10.03;100.00;99220.28;4895525;29;20039;-95
2024/02/14 00:03:26;;;;;;;3.25;2.00;;;;;;;10.04;100.00;99208.72;4905262;28;20046;-94
2024/02/14 00:06:23;;;;;;;7.28;2.40;;;;;;;10.17;100.00;99210.81;4922419;28;20051;-95
2024/02/14 00:09:07;;;;;;;2.53;2.33;;;;;;;10.20;100.00;99207.81;4907755;28;20610;-95
2024/02/14 00:33:14;;;;;;;5.55;3.10;;;;;;;10.15;100.00;99223.34;4765829;30;20050;-95
2024/02/14 00:36:51;;;;;;;3.55;2.90;;;;;;;10.17;100.00;99231.94;4730052;30;20044;-93
2024/02/14 00:59:40;;;;;;;9.55;2.80;;;;;;;10.35;100.00;99228.22;4856274;29;20571;-94
2024/02/14 01:02:08;;;;;;;10.48;2.70;;;;;;;10.34;100.00;99230.03;4861821;29;20049;-93
2024/02/14 01:05:06;;;;;;;12.88;3.28;;;;;;;10.40;100.00;99220.63;4856069;29;20063;-95
2024/02/14 01:11:49;;;;;;;8.00;2.78;;;;;;;10.45;100.00;99223.53;4835919;29;20636;-94
2024/02/14 01:14:15;;;;;;;9.27;2.85;;;;;;;10.41;100.00;99215.16;4838861;29;20060;-94
2024/02/14 01:17:51;;;;;;;;;;;;;;;;;;;;;
2024/02/14 01:21:37;;;;;;;6.45;2.80;;;;;;;10.51;100.00;99220.22;4852369;29;20298;-95
2024/02/14 01:24:54;;;;;;;11.13;2.63;;;;;;;10.46;100.00;99227.88;4836896;29;20129;-95
2024/02/14 01:28:12;;;;;;;8.48;2.72;;;;;;;10.54;100.00;99219.06;4840653;29;20530;-94
2024/02/14 01:30:47;;;;;;;13.40;2.60;;;;;;;10.49;100.00;99216.13;4840970;29;20063;-94
2024/02/14 01:34:05;;;;;;;;;;;;;;;;;;;;;
2024/02/14 01:37:02;;;;;;;19.40;3.00;;;;;;;10.52;100.00;99207.84;4859791;29;20041;-95
2024/02/14 01:39:46;;;;;;;8.32;2.15;;;;;;;10.58;100.00;99214.25;4824220;29;20120;-95
2024/02/14 01:42:45;;;;;;;9.55;2.33;;;;;;;10.63;100.00;99214.53;4890801;28;20053;-95
2024/02/14 01:45:31;;;;;;;10.15;2.38;;;;;;;10.64;100.00;99218.81;4928661;28;20049;-94
2024/02/14 01:48:22;;;;;;;7.88;1.85;;;;;;;10.63;100.00;99215.38;4933175;28;20026;-94
2024/02/14 01:51:40;;;;;;;7.75;2.40;;;;;;;10.69;100.00;99221.78;4930813;28;20485;-95
2024/02/14 01:54:18;;;;;;;10.80;2.67;;;;;;;10.65;100.00;99220.50;4939942;28;20047;-94
2024/02/14 01:56:47;;;;;;;7.10;1.88;;;;;;;10.64;100.00;99227.59;4923805;28;20046;-95
2024/02/14 01:59:16;;;;;;;8.13;2.10;;;;;;;10.64;100.00;99229.41;4922537;28;20101;-95
2024/02/14 02:02:11;;;;;;;7.90;1.88;;;;;;;10.70;100.00;99230.53;4940366;28;20105;-95
2024/02/14 02:05:03;;;;;;;8.85;1.98;;;;;;;10.65;100.00;99225.78;4940614;28;20082;-95
2024/02/14 02:07:48;;;;;;;4.85;1.48;;;;;;;10.64;100.00;99226.75;4927517;28;20039;-95
2024/02/14 02:10:35;;;;;;;;;;;;;;;;;;;;;
2024/02/14 02:13:43;;;;;;;11.52;1.80;;;;;;;10.58;100.00;99233.56;4955399;28;20077;-95
2024/02/14 02:17:05;;;;;;;;;;;;;;;;;;;;;
2024/02/14 02:19:57;;;;;;;3.17;1.25;;;;;;;10.53;100.00;99234.09;4938870;28;20054;-94
2024/02/14 02:22:41;;;;;;;4.65;1.45;;;;;;;10.52;100.00;99239.56;4940535;29;20450;-94
2024/02/14 02:25:38;;;;;;;3.53;1.17;;;;;;;10.52;100.00;99234.28;4932988;28;20030;-94
2024/02/14 02:28:22;;;;;;;8.07;1.75;;;;;;;10.53;100.00;99230.63;4935884;28;20401;-95
2024/02/14 02:31:17;;;;;;;7.80;1.52;;;;;;;10.60;100.00;99226.28;4929911;28;20066;-94
2024/02/14 02:34:11;;;;;;;6.75;1.50;;;;;;;10.59;100.00;99232.56;4935084;28;20047;-95
2024/02/14 02:36:45;;;;;;;3.33;1.40;;;;;;;10.57;100.00;99231.09;4925812;28;20078;-95
2024/02/14 02:39:30;;;;;;;9.35;1.83;;;;;;;10.47;100.00;99216.28;4951898;28;20416;-95
2024/02/14 02:42:47;;;;;;;6.68;1.83;;;;;;;10.57;100.00;99228.47;4945288;28;20034;-95
2024/02/14 02:45:36;;;;;;;6.85;1.73;;;;;;;10.51;100.00;99220.22;4957670;28;20122;-94
2024/02/14 02:51:17;;;;;;;5.78;2.05;;;;;;;10.53;100.00;99220.88;4937111;28;19915;-94
2024/02/14 02:54:26;;;;;;;6.80;1.27;;;;;;;10.61;100.00;99227.94;4958349;28;20077;-95
2024/02/14 02:57:47;;;;;;;4.47;1.33;;;;;;;10.65;100.00;99217.84;4956496;28;20043;-95
2024/02/14 03:00:31;;;;;;;6.05;1.65;;;;;;;10.59;100.00;99216.72;4961485;28;20051;-94
2024/02/14 03:03:34;;;;;;;7.03;1.40;;;;;;;10.69;100.00;99221.78;4926071;28;20142;-95
2024/02/14 03:06:26;;;;;;;7.68;1.50;;;;;;;10.67;100.00;99224.59;4939635;28;20027;-95
2024/02/14 03:09:17;;;;;;;8.73;2.08;;;;;;;10.70;100.00;99212.03;4921273;29;20470;-95
2024/02/14 03:12:04;;;;;;;10.95;2.03;;;;;;;10.68;100.00;99206.91;4922129;28;20043;-94
2024/02/14 03:14:53;;;;;;;8.10;1.90;;;;;;;10.72;100.00;99205.56;4938892;28;20528;-94
2024/02/14 03:17:33;;;;;;;10.15;2.22;;;;;;;10.65;100.00;99199.34;4945994;29;20039;-94
2024/02/14 03:20:04;;;;;;;11.23;1.83;;;;;;;10.68;100.00;99206.91;4939213;28;20036;-95
2024/02/14 03:22:53;;;;;;;8.68;1.75;;;;;;;10.69;100.00;99202.47;4906487;29;20043;-94
2024/02/14 03:25:23;;;;;;;7.38;1.80;;;;;;;10.66;100.00;99199.16;4912060;29;20043;-94
2024/02/14 03:28:08;;;;;;;7.20;1.60;;;;;;;10.66;100.00;99199.16;4921706;29;20054;-95
2024/02/14 03:30:35;;;;;;;9.40;1.73;;;;;;;10.66;100.00;99200.97;4920885;28;20047;-95
2024/02/14 03:33:33;;;;;;;8.52;2.15;;;;;;;10.73;100.00;99204.59;4938040;29;20031;-96
2024/02/14 03:35:59;;;;;;;7.22;1.63;;;;;;;10.66;100.00;99200.97;4917180;29;20130;-95
2024/02/14 03:38:41;;;;;;;12.73;2.28;;;;;;;10.71;100.00;99203.94;4906556;29;20035;-95
2024/02/14 03:41:15;;;;;;;10.18;1.70;;;;;;;10.70;100.00;99204.94;4912640;29;20031;-95
2024/02/14 03:43:42;;;;;;;14.77;2.10;;;;;;;10.65;100.00;99191.41;4923120;28;20051;-94
2024/02/14 03:46:28;;;;;;;11.52;2.17;;;;;;;10.67;100.00;99198.16;4908547;29;20553;-95
2024/02/14 03:49:14;;;;;;;22.45;2.25;;;;;;;10.74;100.00;99195.66;4935154;29;20031;-94
2024/02/14 03:51:49;;;;;;;13.77;1.95;;;;;;;10.70;100.00;99194.38;4923109;29;20121;-95
2024/02/14 03:54:31;;;;;;;11.43;1.55;;;;;;;10.70;100.00;99189.06;4920435;28;20043;-94
2024/02/14 03:57:08;;;;;;;12.00;1.85;;;;;;;10.66;100.00;99175.38;4935154;28;20069;-95
2024/02/14 03:59:38;;;;;;;14.98;2.08;;;;;;;10.77;100.00;99183.88;4943184;28;20106;-94
2024/02/14 04:02:06;;;;;;;18.63;2.63;;;;;;;10.71;100.00;99171.38;4919043;28;20046;-95
2024/02/14 04:04:35;;;;;;;22.85;2.10;;;;;;;10.70;100.00;99170.59;4938270;28;20532;-94
2024/02/14 04:07:03;;;;;;;18.30;2.30;;;;;;;10.74;100.00;99178.94;4925420;28;20050;-95
2024/02/14 04:09:38;;;;;;;18.00;2.45;;;;;;;10.76;100.00;99177.81;4936862;28;20035;-95
2024/02/14 04:12:10;;;;;;;16.77;2.45;;;;;;;10.68;100.00;99172.56;4956583;28;20041;-95
2024/02/14 04:14:55;;;;;;;23.60;2.38;;;;;;;10.67;100.00;99168.28;4967798;28;20051;-95
2024/02/14 04:17:29;;;;;;;20.35;2.63;;;;;;;10.67;100.00;99181.50;4930559;28;20037;-95
2024/02/14 04:19:58;;;;;;;24.33;3.33;;;;;;;10.61;100.00;99179.53;4928628;28;20523;-94
2024/02/14 04:22:30;;;;;;;26.65;3.33;;;;;;;10.65;100.00;99178.22;4938340;28;20763;-94
2024/02/14 04:24:59;;;;;;;15.05;2.55;;;;;;;10.60;100.00;99178.75;4923732;29;20035;-95
2024/02/14 04:27:27;;;;;;;24.25;3.35;;;;;;;10.60;100.00;99170.81;4968219;28;20035;-94
2024/02/14 04:29:56;;;;;;;19.17;2.60;;;;;;;10.64;100.00;99179.19;4921844;29;20446;-95
2024/02/14 04:32:22;;;;;;;28.77;3.10;;;;;;;10.67;100.00;99187.59;4926689;28;20050;-95
2024/02/14 04:34:49;;;;;;;22.25;2.10;;;;;;;10.67;100.00;99176.22;4930714;29;20106;-94
2024/02/14 04:37:17;;;;;;;27.65;3.15;;;;;;;10.68;100.00;99180.50;4956727;28;20042;-96
2024/02/14 04:39:44;;;;;;;21.17;2.70;;;;;;;10.67;100.00;99184.16;4924817;28;20030;-95
2024/02/14 04:42:10;;;;;;;38.03;3.15;;;;;;;10.69;100.00;99182.13;4940119;28;20432;-94
2024/02/14 04:44:39;;;;;;;17.50;2.45;;;;;;;10.70;100.00;99189.06;4927360;28;20042;-95
2024/02/14 04:47:09;;;;;;;22.38;2.78;;;;;;;10.75;100.00;99183.25;4924902;28;20038;-95
2024/02/14 04:49:35;;;;;;;23.13;3.42;;;;;;;10.74;100.00;99173.66;4917149;28;20485;-95
2024/02/14 04:52:09;;;;;;;20.92;2.40;;;;;;;10.74;100.00;99173.66;4922397;28;20090;-94
2024/02/14 04:54:35;;;;;;;24.85;2.53;;;;;;;10.76;100.00;99174.31;4932030;28;20046;-94
2024/02/14 04:57:03;;;;;;;28.23;2.83;;;;;;;10.72;100.00;99168.56;4922934;28;20039;-94
2024/02/14 04:59:30;;;;;;;20.95;2.45;;;;;;;10.72;100.00;99180.97;4946019;28;20031;-94
2024/02/14 05:01:58;;;;;;;32.13;3.33;;;;;;;10.71;100.00;99177.50;4911298;29;20130;-94
2024/02/14 05:04:24;;;;;;;20.77;2.08;;;;;;;10.67;100.00;99181.50;4925694;29;20035;-94
2024/02/14 05:06:51;;;;;;;20.40;2.58;;;;;;;10.69;100.00;99176.84;4935513;29;20148;-94
2024/02/14 05:09:26;;;;;;;23.75;2.40;;;;;;;10.75;100.00;99185.91;4925145;29;20093;-95
2024/02/14 05:11:55;;;;;;;22.65;3.63;;;;;;;10.77;100.00;99189.16;4909328;29;21561;-95
2024/02/14 05:14:21;;;;;;;21.98;2.92;;;;;;;10.73;100.00;99188.72;4924943;29;20118;-95
2024/02/14 05:16:50;;;;;;;21.67;3.10;;;;;;;10.81;100.00;99184.38;4927929;29;20039;-92
2024/02/14 05:19:16;;;;;;;27.98;2.90;;;;;;;10.77;100.00;99190.00;4908694;28;20039;-90
2024/02/14 05:21:42;;;;;;;16.80;2.45;;;;;;;10.75;100.00;99196.47;4923067;29;20042;-91
2024/02/14 05:24:08;;;;;;;26.15;3.40;;;;;;;10.81;100.00;99198.41;4909670;28;20035;-91
2024/02/14 05:26:35;;;;;;;21.17;2.63;;;;;;;10.83;100.00;99203.53;4909703;29;20042;-94
2024/02/14 05:29:01;;;;;;;31.95;2.92;;;;;;;10.79;100.00;99198.59;4940959;29;20387;-95
2024/02/14 05:31:43;;;;;;;27.95;3.00;;;;;;;10.86;100.00;99193.41;4922821;29;20126;-94
2024/02/14 05:34:10;;;;;;;29.77;3.45;;;;;;;10.78;100.00;99196.91;4938488;29;20486;-94
2024/02/14 05:36:36;;;;;;;32.85;2.97;;;;;;;10.83;100.00;99203.53;4941714;29;20039;-94
2024/02/14 05:39:02;;;;;;;25.88;2.63;;;;;;;10.82;100.00;99196.56;4908863;29;20038;-94
2024/02/14 05:41:28;;;;;;;18.92;2.95;;;;;;;10.80;100.00;99204.69;4923244;29;20039;-94
2024/02/14 05:43:57;;;;;;;28.35;3.13;;;;;;;10.84;100.00;99197.22;4909151;28;20079;-94
2024/02/14 05:46:23;;;;;;;20.63;3.20;;;;;;;10.82;100.00;99192.13;4910629;29;20097;-94
2024/02/14 05:48:49;;;;;;;36.53;3.75;;;;;;;10.81;100.00;99195.78;4925401;28;20039;-94
2024/02/14 05:51:15;;;;;;;32.90;2.80;;;;;;;10.85;100.00;99201.50;4928288;28;20074;-94
2024/02/14 05:53:41;;;;;;;32.67;2.90;;;;;;;10.77;100.00;99203.22;4923603;28;20105;-95
2024/02/14 05:56:07;;;;;;;32.05;3.20;;;;;;;10.75;100.00;99207.84;4926127;29;20082;-94
2024/02/14 05:58:33;;;;;;;29.90;3.20;;;;;;;10.78;100.00;99210.13;4917050;28;20034;-95
2024/02/14 06:00:59;;;;;;;25.33;2.78;;;;;;;10.83;100.00;99216.75;4939859;29;20053;-94
2024/02/14 06:03:25;;;;;;;30.42;2.97;;;;;;;10.79;100.00;99203.88;4955748;28;20382;-94
2024/02/14 06:05:51;;;;;;;34.95;3.90;;;;;;;10.82;100.00;99212.44;4926761;29;20043;-94
2024/02/14 06:08:17;;;;;;;32.17;3.83;;;;;;;10.84;100.00;99206.00;4957359;28;20117;-94
2024/02/14 06:10:44;;;;;;;27.30;3.58;;;;;;;10.86;100.00;99205.81;4928478;28;20130;-94
2024/02/14 06:13:10;;;;;;;32.25;3.75;;;;;;;10.86;100.00;99209.25;4949391;28;20271;-95
2024/02/14 06:15:37;;;;;;;34.83;4.07;;;;;;;10.88;100.00;99209.91;4941173;28;20054;-94
2024/02/14 06:18:03;;;;;;;32.95;3.55;;;;;;;10.92;100.00;99208.53;4951308;28;20038;-94
2024/02/14 06:20:29;;;;;;;39.13;5.68;;;;;;;10.95;100.00;99211.84;4930349;28;20043;-93
2024/02/14 06:22:56;;;;;;;30.02;3.20;;;;;;;10.97;100.00;99204.56;4945932;28;20035;-94
2024/02/14 06:25:22;;;;;;;41.38;3.63;;;;;;;10.97;100.00;99202.75;4922979;28;20524;-95
2024/02/14 06:27:57;;;;;;;33.80;3.72;;;;;;;10.97;100.00;99200.09;4922627;28;20066;-95
2024/02/14 06:30:24;;;;;;;26.25;3.22;;;;;;;10.97;100.00;99200.09;4931073;28;20185;-95
2024/02/14 06:32:50;;;;;;;26.95;3.03;;;;;;;10.97;100.00;99194.00;4956234;28;20652;-95
2024/02/14 06:35:18;;;;;;;29.67;3.38;;;;;;;10.98;100.00;99209.69;4938221;28;20053;-95
2024/02/14 06:37:45;;;;;;;40.00;4.00;;;;;;;10.99;100.00;99205.22;4954110;28;20031;-94
2024/02/14 06:40:12;;;;;;;27.98;3.13;;;;;;;10.98;100.00;99204.38;4921212;28;20058;-95
2024/02/14 06:42:38;;;;;;;35.42;3.45;;;;;;;11.00;100.00;99206.84;4927170;29;20047;-94
2024/02/14 06:45:05;;;;;;;27.35;3.30;;;;;;;11.00;100.00;99198.91;4951378;28;20034;-95
2024/02/14 06:47:33;;;;;;;33.92;3.88;;;;;;;11.06;100.00;99197.38;4944114;28;20031;-95
2024/02/14 06:49:59;;;;;;;23.05;2.65;;;;;;;11.04;100.00;99198.38;4942303;28;20027;-95
2024/02/14 06:52:27;;;;;;;27.23;2.47;;;;;;;11.09;100.00;99197.84;4956996;28;20133;-94
2024/02/14 06:54:53;;;;;;;21.13;2.45;;;;;;;11.06;100.00;99192.09;4941656;28;20043;-95
2024/02/14 06:57:19;;;;;;;22.45;2.42;;;;;;;11.07;100.00;99202.47;4923138;29;20035;-95
2024/02/14 06:59:45;;;;;;;15.70;2.15;;;;;;;11.07;100.00;99213.06;4931021;29;20039;-95
2024/02/14 07:02:11;;;;;;;15.68;2.38;;;;;;;11.09;100.00;99216.34;4938488;29;20050;-95
2024/02/14 07:04:38;;;;;;;19.80;1.63;;;;;;;11.09;100.00;99220.81;4910203;29;20039;-95
2024/02/14 07:07:04;;;;;;;14.93;1.63;;;;;;;11.11;100.00;99216.19;4923571;29;20509;-95
2024/02/14 07:09:32;;;;;;;24.95;1.77;;;;;;;11.15;100.00;99228.88;4918599;29;20114;-94
2024/02/14 07:11:58;;;;;;;12.27;1.52;;;;;;;11.16;100.00;99227.06;4916331;29;20098;-95
2024/02/14 07:14:24;;;;;;;11.48;1.58;;;;;;;11.13;100.00;99219.47;4904396;29;20130;-94
2024/02/14 07:16:51;;;;;;;4.30;1.02;;;;;;;11.16;100.00;99216.47;4905602;29;20130;-95
2024/02/14 07:19:17;;;;;;;6.50;1.17;;;;;;;11.15;100.00;99215.63;4905427;29;20031;-94
2024/02/14 07:21:43;;;;;;;8.18;0.95;;;;;;;11.16;100.00;99224.41;4922191;29;20039;-95
2024/02/14 07:24:09;;;;;;;11.07;1.17;;;;;;;11.17;100.00;99223.41;4922629;29;20049;-95
2024/02/14 07:26:35;;;;;;;3.25;0.73;;;;;;;11.15;100.00;99226.22;4893767;29;20043;-95
2024/02/14 07:29:03;;;;;;;6.50;1.02;;;;;;;11.16;100.00;99224.41;4916551;29;20098;-95
2024/02/14 07:31:34;;;;;;;3.55;0.70;;;;;;;11.18;100.00;99226.88;4901199;29;20043;-94
2024/02/14 07:34:02;;;;;;;7.20;0.80;;;;;;;11.19;100.00;99229.34;4932688;28;20043;-94
2024/02/14 07:36:30;;;;;;;4.88;0.70;;;;;;;11.16;100.00;99229.69;4933434;29;20065;-95
2024/02/14 07:38:56;;;;;;;4.07;0.73;;;;;;;11.16;100.00;99235.78;4921973;29;20046;-94
2024/02/14 07:41:23;;;;;;;8.52;1.27;;;;;;;11.15;100.00;99235.97;4915107;29;20046;-95
2024/02/14 07:43:53;;;;;;;8.30;1.08;;;;;;;11.12;100.00;99229.22;4919445;29;20486;-96
2024/02/14 07:46:20;;;;;;;7.35;1.20;;;;;;;11.14;100.00;99242.28;4922551;29;20105;-96
2024/02/14 07:48:47;;;;;;;13.38;1.60;;;;;;;11.14;100.00;99240.47;4936235;28;20110;-94
2024/02/14 07:51:13;;;;;;;12.30;1.77;;;;;;;11.15;100.00;99238.63;4906100;29;20039;-95
2024/02/14 07:53:39;;;;;;;11.73;2.17;;;;;;;11.16;100.00;99251.66;4907020;29;20034;-95
2024/02/14 07:56:05;;;;;;;10.43;1.75;;;;;;;11.18;100.00;99254.13;4912096;29;20039;-95
2024/02/14 07:58:31;;;;;;;9.95;1.45;;;;;;;11.18;100.00;99261.25;4907398;29;20031;-95
2024/02/14 08:00:58;;;;;;;10.57;1.48;;;;;;;11.19;100.00;99250.50;4920522;29;20051;-95
2024/02/14 08:03:27;;;;;;;12.63;1.80;;;;;;;11.15;100.00;99235.97;4923124;28;20135;-96
2024/02/14 08:05:56;;;;;;;19.00;2.13;;;;;;;11.24;100.00;99245.50;4936216;28;20097;-95
2024/02/14 08:08:26;;;;;;;22.20;2.55;;;;;;;11.19;100.00;99247.84;4940855;28;20143;-95
2024/02/14 08:10:55;;;;;;;22.02;2.33;;;;;;;11.19;100.00;99239.91;4937639;29;20056;-95
2024/02/14 08:13:22;;;;;;;21.50;2.33;;;;;;;11.20;100.00;99251.31;4913576;28;20485;-95
2024/02/14 08:15:49;;;;;;;21.70;3.25;;;;;;;11.26;100.00;99271.78;4924868;28;20046;-95
2024/02/14 08:18:15;;;;;;;25.27;2.45;;;;;;;11.24;100.00;99258.72;4937442;28;20046;-95
2024/02/14 08:20:42;;;;;;;16.10;2.00;;;;;;;11.24;100.00;99258.72;4925238;28;20039;-95
2024/02/14 08:23:13;;;;;;;16.25;2.08;;;;;;;11.27;100.00;99252.25;4936891;28;20587;-95
2024/02/14 08:25:41;;;;;;;21.80;2.33;;;;;;;11.27;100.00;99260.19;4937892;28;20046;-95
2024/02/14 08:28:07;;;;;;;19.75;1.95;;;;;;;11.27;100.00;99271.59;4935848;28;20038;-95
2024/02/14 08:30:34;;;;;;;15.18;2.40;;;;;;;11.28;100.00;99267.09;4942802;28;20516;-95
2024/02/14 08:33:00;;;;;;;11.60;1.40;;;;;;;11.31;100.00;99281.81;4967818;28;20082;-95
2024/02/14 08:35:26;;;;;;;23.02;1.88;;;;;;;11.32;100.00;99286.09;4949736;28;20034;-95
2024/02/14 08:37:52;;;;;;;18.05;2.08;;;;;;;11.34;100.00;99276.19;4951877;28;20035;-95
2024/02/14 08:40:18;;;;;;;17.98;1.80;;;;;;;11.36;100.00;99276.78;4948568;28;20031;-95
2024/02/14 08:42:44;;;;;;;17.00;1.42;;;;;;;11.35;100.00;99291.88;4950188;28;20031;-95
2024/02/14 08:45:10;;;;;;;17.02;1.70;;;;;;;11.37;100.00;99283.75;4944834;28;20452;-96
2024/02/14 08:47:36;;;;;;;9.77;1.58;;;;;;;11.38;100.00;99288.88;4927236;28;20039;-95
2024/02/14 08:50:06;;;;;;;10.38;1.15;;;;;;;11.46;100.00;99295.91;4941642;28;20046;-95
2024/02/14 08:52:32;;;;;;;11.27;1.20;;;;;;;11.42;100.00;99302.53;4942497;28;20043;-96
2024/02/14 08:54:58;;;;;;;14.82;1.55;;;;;;;11.43;100.00;99300.72;4923090;29;20482;-95
2024/02/14 08:57:24;;;;;;;8.30;1.48;;;;;;;11.44;100.00;99300.53;4955003;28;20043;-95
2024/02/14 08:59:50;;;;;;;12.23;1.27;;;;;;;11.47;100.00;99296.72;4929424;28;20039;-95
2024/02/14 09:02:17;;;;;;;8.32;1.20;;;;;;;11.49;100.00;99307.94;4928654;28;20790;-95
2024/02/14 09:04:43;;;;;;;8.43;1.45;;;;;;;11.49;100.00;99306.13;4945728;28;20036;-96
2024/02/14 09:07:10;;;;;;;12.10;1.60;;;;;;;11.51;100.00;99305.97;4927898;28;20058;-95
2024/02/14 09:09:37;;;;;;;5.78;1.00;;;;;;;11.55;100.00;99304.59;4925809;28;20031;-92
2024/02/14 09:12:04;;;;;;;7.15;1.02;;;;;;;11.59;100.00;99313.00;4942972;28;20073;-95
2024/02/14 09:14:30;;;;;;;10.98;1.30;;;;;;;11.62;100.00;99310.81;4958905;28;20062;-95
2024/02/14 09:16:59;;;;;;;9.95;1.10;;;;;;;11.64;100.00;99308.00;4928617;28;20066;-95
2024/02/14 09:19:27;;;;;;;5.22;1.00;;;;;;;11.65;100.00;99304.34;4943506;28;20026;-95
2024/02/14 09:21:53;;;;;;;9.20;1.73;;;;;;;11.71;100.00;99310.72;4938013;28;20098;-94
2024/02/14 09:24:19;;;;;;;5.25;1.05;;;;;;;11.75;100.00;99307.53;4956582;28;20039;-94
2024/02/14 09:26:45;;;;;;;8.23;1.17;;;;;;;11.82;100.00;99317.44;4942171;28;20042;-94
2024/02/14 09:29:11;;;;;;;5.57;0.60;;;;;;;11.85;100.00;99319.72;4926964;28;20039;-95
2024/02/14 09:31:37;;;;;;;4.32;0.57;;;;;;;11.84;100.00;99326.84;4927300;28;20042;-95
2024/02/14 09:34:03;;;;;;;5.47;0.75;;;;;;;11.87;100.00;99323.81;4950937;28;20117;-94
2024/02/14 09:36:30;;;;;;;6.65;0.70;;;;;;;11.90;100.00;99328.75;4943026;28;20062;-94
2024/02/14 09:38:57;;;;;;;5.78;0.60;;;;;;;11.97;100.00;99344.75;4918996;28;20657;-94
2024/02/14 09:41:36;;;;;;;3.08;0.65;;;;;;;12.05;100.00;99338.53;4939895;29;20066;-94
2024/02/14 09:44:03;;;;;;;6.38;0.60;;;;;;;12.02;100.00;99338.91;4932731;28;20042;-94
2024/02/14 09:46:30;;;;;;;6.55;0.68;;;;;;;11.98;100.00;99329.66;4929253;28;20042;-93
2024/02/14 09:48:59;;;;;;;6.10;0.60;;;;;;;11.99;100.00;99339.28;4958704;28;20026;-93
2024/02/14 09:51:25;;;;;;;4.40;0.30;;;;;;;11.99;100.00;99339.28;4948710;28;20049;-93
2024/02/14 09:53:54;;;;;;;1.75;0.40;;;;;;;12.00;100.00;99333.78;4943119;28;20035;-94
2024/02/14 09:56:24;;;;;;;4.65;0.88;;;;;;;12.06;100.00;99340.19;4929395;28;20035;-95
2024/02/14 09:58:55;;;;;;;3.85;0.57;;;;;;;12.00;100.00;99351.50;4943713;28;20039;-95
2024/02/14 10:01:26;;;;;;;4.60;0.60;;;;;;;12.00;100.00;99349.69;4945440;28;20113;-94
2024/02/14 10:03:54;;;;;;;9.55;0.70;;;;;;;12.00;100.00;99359.44;4954406;28;20050;-96
2024/02/14 10:06:21;;;;;;;5.68;0.82;;;;;;;12.01;100.00;99364.56;4938573;28;20121;-95
2024/02/14 10:08:48;;;;;;;5.15;0.60;;;;;;;12.00;100.00;99364.75;4938027;28;20035;-95
2024/02/14 10:11:21;;;;;;;4.90;0.77;;;;;;;12.00;100.00;99357.63;4919874;29;20035;-96
2024/02/14 10:13:53;;;;;;;8.52;0.80;;;;;;;12.06;100.00;99373.78;4937597;28;20050;-96
2024/02/14 10:16:25;;;;;;;5.35;0.52;;;;;;;12.08;100.00;99371.81;4925089;28;20037;-95
2024/02/14 10:18:54;;;;;;;11.05;1.02;;;;;;;12.07;100.00;99365.66;4947245;28;20027;-96
2024/02/14 10:21:25;;;;;;;9.15;0.85;;;;;;;12.09;100.00;99366.34;4942982;28;20129;-96
2024/02/14 10:23:52;;;;;;;11.18;0.70;;;;;;;12.11;100.00;99379.41;4941214;28;20125;-96
2024/02/14 10:26:19;;;;;;;13.13;1.17;;;;;;;12.18;100.00;99377.69;4924290;28;20038;-95
2024/02/14 10:28:45;;;;;;;9.43;1.10;;;;;;;12.21;100.00;99384.44;4921781;28;20106;-96
2024/02/14 10:31:12;;;;;;;11.93;1.80;;;;;;;12.26;100.00;99384.72;4926040;28;20070;-96
2024/02/14 10:33:43;;;;;;;11.65;0.80;;;;;;;12.26;100.00;99382.88;4940307;28;20058;-95
2024/02/14 10:36:13;;;;;;;8.13;1.27;;;;;;;12.32;100.00;99388.47;4931813;28;20034;-94
2024/02/14 10:38:40;;;;;;;9.02;1.23;;;;;;;12.31;100.00;99395.56;4942304;28;20049;-94
2024/02/14 10:41:09;;;;;;;10.95;1.42;;;;;;;12.35;100.00;99396.88;4924633;28;20027;-95
2024/02/14 10:43:40;;;;;;;15.07;1.27;;;;;;;12.43;100.00;99403.09;4944844;28;20047;-95
2024/02/14 10:46:15;;;;;;;16.75;1.65;;;;;;;12.42;100.00;99404.09;4929818;28;20452;-96
2024/02/14 10:48:50;;;;;;;10.65;2.33;;;;;;;12.38;100.00;99406.28;4933368;28;20039;-95
2024/02/14 10:51:30;;;;;;;11.13;1.90;;;;;;;12.40;100.00;99412.22;4941716;28;20093;-93
2024/02/14 10:54:16;;;;;;;13.77;2.05;;;;;;;12.39;100.00;99413.25;4936497;28;20054;-94
2024/02/14 10:57:12;;;;;;;15.80;2.23;;;;;;;12.39;100.00;99407.94;4936798;28;20044;-96
2024/02/14 10:59:56;;;;;;;20.95;2.85;;;;;;;12.39;100.00;99400.78;4923018;28;20055;-94
2024/02/14 11:02:37;;;;;;;15.80;2.05;;;;;;;12.37;100.00;99400.19;4936293;28;20042;-94
2024/02/14 11:05:06;;;;;;;21.88;3.03;;;;;;;12.45;100.00;99398.44;4928144;28;20038;-94
2024/02/14 11:07:35;;;;;;;15.52;2.65;;;;;;;12.41;100.00;99400.63;4926042;28;20045;-94
2024/02/14 11:10:07;;;;;;;23.52;2.83;;;;;;;12.50;100.00;99406.66;4911602;29;20066;-93
2024/02/14 11:12:39;;;;;;;23.50;2.75;;;;;;;12.50;100.00;99410.13;4947046;28;20035;-95
2024/02/14 11:15:31;;;;;;;23.77;3.70;;;;;;;12.56;100.00;99400.63;4946724;28;20043;-94
2024/02/14 11:18:07;;;;;;;21.15;3.05;;;;;;;12.60;100.00;99409.00;4943259;28;20146;-95
2024/02/14 11:20:48;;;;;;;25.23;2.90;;;;;;;12.64;100.00;99423.56;4924337;28;20035;-96
2024/02/14 11:23:22;;;;;;;25.10;3.83;;;;;;;12.68;100.00;99419.53;4953435;28;20042;-96
2024/02/14 11:25:59;;;;;;;30.08;4.25;;;;;;;12.64;100.00;99427.06;4938477;28;20350;-96
2024/02/14 11:28:37;;;;;;;27.33;4.30;;;;;;;12.80;100.00;99421.72;4939812;28;20027;-96
2024/02/14 11:31:09;;;;;;;27.73;3.17;;;;;;;12.81;100.00;99415.41;4938960;28;20034;-96
2024/02/14 11:33:36;;;;;;;31.02;4.22;;;;;;;12.81;100.00;99431.31;4927313;28;20057;-96
2024/02/14 11:36:11;;;;;;;33.60;4.28;;;;;;;12.93;100.00;99437.00;4942127;28;20042;-95
2024/02/14 11:38:40;;;;;;;24.77;4.13;;;;;;;12.86;100.00;99431.59;4956866;28;20070;-95
2024/02/14 11:41:09;;;;;;;29.23;3.55;;;;;;;12.89;100.00;99423.28;4930235;29;20069;-96
2024/02/14 11:43:39;;;;;;;23.73;3.83;;;;;;;12.96;100.00;99423.34;4928177;28;20781;-95
2024/02/14 11:46:09;;;;;;;17.90;2.85;;;;;;;12.94;100.00;99430.66;4930277;28;20046;-96
2024/02/14 11:48:55;;;;;;;22.70;3.67;;;;;;;12.93;100.00;99427.22;4927207;28;20097;-96
2024/02/14 11:51:35;;;;;;;24.92;3.40;;;;;;;12.96;100.00;99423.34;4949870;28;20116;-95
2024/02/14 11:54:04;;;;;;;29.75;3.40;;;;;;;12.93;100.00;99431.69;4945108;28;20038;-96
2024/02/14 11:56:35;;;;;;;29.95;3.72;;;;;;;12.95;100.00;99433.13;4921450;28;20568;-96
2024/02/14 11:59:03;;;;;;;22.60;2.85;;;;;;;13.01;100.00;99434.25;4943595;28;20083;-96
2024/02/14 12:01:36;;;;;;;17.25;3.15;;;;;;;13.07;100.00;99445.94;4954091;28;20097;-96
2024/02/14 12:04:33;;;;;;;22.13;3.05;;;;;;;13.03;100.00;99424.25;4937682;28;20043;-96
2024/02/14 12:07:14;;;;;;;33.95;4.22;;;;;;;12.95;100.00;99430.47;4920918;28;20027;-96
2024/02/14 12:09:51;;;;;;;30.23;4.07;;;;;;;12.94;100.00;99446.59;4941840;28;20023;-96
2024/02/14 12:16:42;;;;;;;34.47;6.47;;;;;;;12.82;100.00;99430.31;4954471;28;20034;-95
2024/02/14 12:19:18;;;;;;;33.50;6.18;;;;;;;12.74;100.00;99425.94;4930777;28;20030;-96
2024/02/14 12:22:01;;;;;;;30.05;4.80;;;;;;;12.75;100.00;99441.66;4944967;28;20144;-96
2024/02/14 12:24:36;;;;;;;34.15;5.00;;;;;;;12.76;100.00;99447.78;4946518;28;20042;-96
2024/02/14 12:27:20;;;;;;;25.77;4.75;;;;;;;12.84;100.00;99449.50;4933075;28;20039;-96
2024/02/14 12:29:46;;;;;;;36.97;5.25;;;;;;;12.88;100.00;99445.50;4946501;28;20146;-96
2024/02/14 12:32:17;;;;;;;35.08;5.38;;;;;;;13.03;100.00;99432.22;4924735;28;20409;-96
2024/02/14 12:34:49;;;;;;;34.88;4.78;;;;;;;13.13;100.00;99437.22;4930315;28;20039;-96
2024/02/14 12:38:06;;;;;;;48.38;7.03;;;;;;;13.23;100.00;99435.13;4936938;28;20081;-96
2024/02/14 12:41:31;;;;;;;34.15;6.72;;;;;;;13.29;100.00;99438.84;4946641;28;20596;-96
2024/02/14 12:44:18;;;;;;;29.33;5.22;;;;;;;13.30;100.00;99427.19;4946845;28;20126;-96
2024/02/14 12:47:03;;;;;;;40.17;6.50;;;;;;;13.31;100.00;99439.47;4962573;28;20030;-95
2024/02/14 12:49:41;;;;;;;43.30;7.53;;;;;;;13.28;100.00;99439.84;4938946;28;20047;-96
2024/02/14 12:53:40;;;;;;;41.00;6.78;;;;;;;13.28;100.00;99443.31;4923567;29;20042;-96